sensor_id;sensor_type;location;lat;lon;timestamp;pressure;altitude;pressure_sealevel;temperature;humidity
74975;BME280;64061;50.836;19.138;2023-01-09T00:01:39;97492.66;;;23.31;48.41
74975;BME280;64061;50.836;19.138;2023-01-09T00:04:45;97492.19;;;23.29;49.44
74975;BME280;64061;50.836;19.138;2023-01-09T00:07:48;97486.34;;;23.30;49.78
74975;BME280;64061;50.836;19.138;2023-01-09T00:10:52;97472.25;;;23.32;50.36
74975;BME280;64061;50.836;19.138;2023-01-09T00:13:56;97470.31;;;23.32;50.39
74975;BME280;64061;50.836;19.138;2023-01-09T00:17:01;97468.34;;;23.33;51.02
74975;BME280;64061;50.836;19.138;2023-01-09T00:20:06;97470.63;;;23.31;51.08
74975;BME280;64061;50.836;19.138;2023-01-09T00:23:11;97469.81;;;23.30;51.28
74975;BME280;64061;50.836;19.138;2023-01-09T00:26:16;97465.94;;;23.31;51.21
74975;BME280;64061;50.836;19.138;2023-01-09T00:29:21;97446.22;;;23.29;51.49
74975;BME280;64061;50.836;19.138;2023-01-09T00:32:26;97454.13;;;23.31;51.10
74975;BME280;64061;50.836;19.138;2023-01-09T00:35:31;97454.50;;;23.29;51.44
74975;BME280;64061;50.836;19.138;2023-01-09T00:38:34;97446.56;;;23.28;51.03
74975;BME280;64061;50.836;19.138;2023-01-09T00:41:40;97449.78;;;23.30;50.96
74975;BME280;64061;50.836;19.138;2023-01-09T00:44:49;97452.06;;;23.28;50.72
74975;BME280;64061;50.836;19.138;2023-01-09T00:48:01;97441.16;;;23.31;51.04
74975;BME280;64061;50.836;19.138;2023-01-09T00:51:08;97446.09;;;23.26;50.91
74975;BME280;64061;50.836;19.138;2023-01-09T00:54:14;97445.44;;;23.29;50.82
74975;BME280;64061;50.836;19.138;2023-01-09T00:57:20;97442.53;;;23.25;50.68
74975;BME280;64061;50.836;19.138;2023-01-09T01:00:23;97453.22;;;23.27;50.75
74975;BME280;64061;50.836;19.138;2023-01-09T01:03:28;97441.41;;;23.26;50.58
74975;BME280;64061;50.836;19.138;2023-01-09T01:06:32;97439.78;;;23.25;50.65
74975;BME280;64061;50.836;19.138;2023-01-09T01:09:54;97445.13;;;23.22;50.76
74975;BME280;64061;50.836;19.138;2023-01-09T01:12:57;97445.63;;;23.24;51.04
74975;BME280;64061;50.836;19.138;2023-01-09T01:16:03;97437.03;;;23.25;50.39
74975;BME280;64061;50.836;19.138;2023-01-09T01:19:09;97437.03;;;23.25;50.55
74975;BME280;64061;50.836;19.138;2023-01-09T01:22:13;97438.50;;;23.23;50.40
74975;BME280;64061;50.836;19.138;2023-01-09T01:25:17;97424.75;;;23.23;50.33
74975;BME280;64061;50.836;19.138;2023-01-09T01:28:20;97418.44;;;23.22;49.95
74975;BME280;64061;50.836;19.138;2023-01-09T01:31:24;97423.94;;;23.22;50.09
74975;BME280;64061;50.836;19.138;2023-01-09T01:34:29;97416.97;;;23.25;50.44
74975;BME280;64061;50.836;19.138;2023-01-09T01:37:33;97416.81;;;23.21;50.25
74975;BME280;64061;50.836;19.138;2023-01-09T01:40:38;97410.50;;;23.21;50.12
74975;BME280;64061;50.836;19.138;2023-01-09T01:43:49;97421.81;;;23.28;49.95
74975;BME280;64061;50.836;19.138;2023-01-09T01:46:55;97410.19;;;23.22;50.40
74975;BME280;64061;50.836;19.138;2023-01-09T01:50:03;97402.72;;;23.23;49.92
74975;BME280;64061;50.836;19.138;2023-01-09T01:53:12;97401.13;;;23.22;49.74
74975;BME280;64061;50.836;19.138;2023-01-09T01:56:21;97394.00;;;23.21;49.49
74975;BME280;64061;50.836;19.138;2023-01-09T01:59:32;97398.03;;;23.23;49.24
74975;BME280;64061;50.836;19.138;2023-01-09T02:02:39;97390.78;;;23.19;49.82
74975;BME280;64061;50.836;19.138;2023-01-09T02:05:46;97398.69;;;23.20;49.30
74975;BME280;64061;50.836;19.138;2023-01-09T02:08:49;97384.47;;;23.18;49.37
74975;BME280;64061;50.836;19.138;2023-01-09T02:11:55;97386.88;;;23.20;49.10
74975;BME280;64061;50.836;19.138;2023-01-09T02:15:03;97382.19;;;23.20;49.24
74975;BME280;64061;50.836;19.138;2023-01-09T02:22:03;97379.44;;;23.20;49.40
74975;BME280;64061;50.836;19.138;2023-01-09T02:25:38;97388.16;;;23.22;49.08
74975;BME280;64061;50.836;19.138;2023-01-09T02:33:18;97382.19;;;23.20;49.18
74975;BME280;64061;50.836;19.138;2023-01-09T02:36:37;97388.34;;;23.17;48.90
74975;BME280;64061;50.836;19.138;2023-01-09T02:39:52;97385.97;;;23.16;49.21
74975;BME280;64061;50.836;19.138;2023-01-09T02:43:06;97380.91;;;23.18;48.65
74975;BME280;64061;50.836;19.138;2023-01-09T02:46:18;97382.66;;;23.22;48.83
74975;BME280;64061;50.836;19.138;2023-01-09T02:49:24;97377.50;;;23.21;48.74
74975;BME280;64061;50.836;19.138;2023-01-09T02:52:38;97383.13;;;23.24;48.15
74975;BME280;64061;50.836;19.138;2023-01-09T02:56:15;97360.31;;;23.24;48.61
74975;BME280;64061;50.836;19.138;2023-01-09T02:59:36;97366.50;;;23.21;48.70
74975;BME280;64061;50.836;19.138;2023-01-09T03:02:53;97364.06;;;23.19;48.57
74975;BME280;64061;50.836;19.138;2023-01-09T03:06:07;97361.31;;;23.19;48.70
74975;BME280;64061;50.836;19.138;2023-01-09T03:09:22;97355.00;;;23.19;48.80
74975;BME280;64061;50.836;19.138;2023-01-09T03:12:30;97354.69;;;23.20;48.70
74975;BME280;64061;50.836;19.138;2023-01-09T03:15:37;97348.38;;;23.20;48.74
74975;BME280;64061;50.836;19.138;2023-01-09T03:18:47;97351.94;;;23.20;48.72
74975;BME280;64061;50.836;19.138;2023-01-09T03:21:55;97353.88;;;23.20;48.47
74975;BME280;64061;50.836;19.138;2023-01-09T03:25:00;97339.66;;;23.18;48.50
74975;BME280;64061;50.836;19.138;2023-01-09T03:28:05;97342.06;;;23.19;48.55
74975;BME280;64061;50.836;19.138;2023-01-09T03:31:10;97329.44;;;23.18;48.25
74975;BME280;64061;50.836;19.138;2023-01-09T03:34:14;97331.06;;;23.19;48.57
74975;BME280;64061;50.836;19.138;2023-01-09T03:37:19;97326.03;;;23.21;47.84
74975;BME280;64061;50.836;19.138;2023-01-09T03:40:22;97325.56;;;23.19;48.21
74975;BME280;64061;50.836;19.138;2023-01-09T03:43:26;97322.81;;;23.19;48.10
74975;BME280;64061;50.836;19.138;2023-01-09T03:46:29;97312.94;;;23.18;47.93
74975;BME280;64061;50.836;19.138;2023-01-09T03:49:33;97317.31;;;23.19;48.37
74975;BME280;64061;50.836;19.138;2023-01-09T03:52:38;97313.88;;;23.22;48.11
74975;BME280;64061;50.836;19.138;2023-01-09T03:55:44;97304.34;;;23.20;48.13
74975;BME280;64061;50.836;19.138;2023-01-09T03:58:47;97318.91;;;23.20;47.77
74975;BME280;64061;50.836;19.138;2023-01-09T04:01:53;97315.34;;;23.20;48.13
74975;BME280;64061;50.836;19.138;2023-01-09T04:04:57;97300.47;;;23.21;47.82
74975;BME280;64061;50.836;19.138;2023-01-09T04:08:02;97304.03;;;23.21;47.92
74975;BME280;64061;50.836;19.138;2023-01-09T04:11:06;97294.16;;;23.20;48.30
74975;BME280;64061;50.836;19.138;2023-01-09T04:14:10;97287.03;;;23.19;48.17
74975;BME280;64061;50.836;19.138;2023-01-09T04:17:14;97288.66;;;23.20;47.85
74975;BME280;64061;50.836;19.138;2023-01-09T04:20:18;97291.41;;;23.20;48.31
74975;BME280;64061;50.836;19.138;2023-01-09T04:23:23;97294.63;;;23.22;47.77
74975;BME280;64061;50.836;19.138;2023-01-09T04:26:27;97283.16;;;23.20;47.85
74975;BME280;64061;50.836;19.138;2023-01-09T04:29:30;97268.59;;;23.20;47.84
74975;BME280;64061;50.836;19.138;2023-01-09T04:32:34;97284.28;;;23.19;47.63
74975;BME280;64061;50.836;19.138;2023-01-09T04:35:38;97276.84;;;23.20;47.47
74975;BME280;64061;50.836;19.138;2023-01-09T04:38:43;97281.19;;;23.21;47.49
74975;BME280;64061;50.836;19.138;2023-01-09T04:41:46;97268.91;;;23.18;47.40
74975;BME280;64061;50.836;19.138;2023-01-09T04:44:53;97260.66;;;23.18;47.68
74975;BME280;64061;50.836;19.138;2023-01-09T04:47:56;97270.53;;;23.19;47.78
74975;BME280;64061;50.836;19.138;2023-01-09T04:51:00;97253.22;;;23.19;47.55
74975;BME280;64061;50.836;19.138;2023-01-09T04:54:05;97261.13;;;23.20;47.15
74975;BME280;64061;50.836;19.138;2023-01-09T04:57:09;97259.88;;;23.18;47.23
74975;BME280;64061;50.836;19.138;2023-01-09T05:00:13;97249.66;;;23.18;47.51
74975;BME280;64061;50.836;19.138;2023-01-09T05:03:17;97250.81;;;23.17;46.83
74975;BME280;64061;50.836;19.138;2023-01-09T05:06:21;97248.53;;;23.19;46.89
74975;BME280;64061;50.836;19.138;2023-01-09T05:09:26;97243.03;;;23.19;47.18
74975;BME280;64061;50.836;19.138;2023-01-09T05:12:29;97246.91;;;23.18;47.11
74975;BME280;64061;50.836;19.138;2023-01-09T05:15:33;97246.91;;;23.18;47.27
74975;BME280;64061;50.836;19.138;2023-01-09T05:18:36;97240.59;;;23.18;46.93
74975;BME280;64061;50.836;19.138;2023-01-09T05:21:40;97241.41;;;23.18;47.01
74975;BME280;64061;50.836;19.138;2023-01-09T05:24:44;97244.63;;;23.20;46.74
74975;BME280;64061;50.836;19.138;2023-01-09T05:27:48;97237.53;;;23.19;47.47
74975;BME280;64061;50.836;19.138;2023-01-09T05:30:51;97243.03;;;23.19;47.20
74975;BME280;64061;50.836;19.138;2023-01-09T05:33:55;97231.56;;;23.17;46.90
74975;BME280;64061;50.836;19.138;2023-01-09T05:37:00;97224.91;;;23.18;47.47
74975;BME280;64061;50.836;19.138;2023-01-09T05:40:06;97226.50;;;23.19;46.98
74975;BME280;64061;50.836;19.138;2023-01-09T05:43:11;97221.34;;;23.18;47.39
74975;BME280;64061;50.836;19.138;2023-01-09T05:46:15;97217.78;;;23.17;46.93
74975;BME280;64061;50.836;19.138;2023-01-09T05:49:18;97206.78;;;23.17;46.60
74975;BME280;64061;50.836;19.138;2023-01-09T05:52:22;97208.41;;;23.18;46.37
74975;BME280;64061;50.836;19.138;2023-01-09T05:55:27;97208.41;;;23.18;46.71
74975;BME280;64061;50.836;19.138;2023-01-09T05:58:31;97194.22;;;23.16;46.52
74975;BME280;64061;50.836;19.138;2023-01-09T06:01:35;97181.25;;;23.17;46.45
74975;BME280;64061;50.836;19.138;2023-01-09T06:04:38;97173.78;;;23.17;46.38
74975;BME280;64061;50.836;19.138;2023-01-09T06:07:41;97179.28;;;23.17;46.68
74975;BME280;64061;50.836;19.138;2023-01-09T06:10:46;97174.59;;;23.18;46.58
74975;BME280;64061;50.836;19.138;2023-01-09T06:13:49;97171.41;;;23.16;46.51
74975;BME280;64061;50.836;19.138;2023-01-09T06:16:53;97166.69;;;23.16;45.75
74975;BME280;64061;50.836;19.138;2023-01-09T06:19:57;97163.16;;;23.16;46.39
74975;BME280;64061;50.836;19.138;2023-01-09T06:23:00;97161.19;;;23.16;46.21
74975;BME280;64061;50.836;19.138;2023-01-09T06:26:05;97160.81;;;23.18;46.29
74975;BME280;64061;50.836;19.138;2023-01-09T06:29:08;97167.13;;;23.18;46.39
74975;BME280;64061;50.836;19.138;2023-01-09T06:32:12;97169.22;;;23.21;46.83
74975;BME280;64061;50.836;19.138;2023-01-09T06:35:16;97172.44;;;23.23;46.85
74975;BME280;64061;50.836;19.138;2023-01-09T06:38:21;97164.63;;;23.25;46.75
74975;BME280;64061;50.836;19.138;2023-01-09T06:41:26;97170.59;;;23.27;46.14
74975;BME280;64061;50.836;19.138;2023-01-09T06:44:30;97161.53;;;23.27;46.91
74975;BME280;64061;50.836;19.138;2023-01-09T06:47:34;97173.34;;;23.27;47.01
74975;BME280;64061;50.836;19.138;2023-01-09T06:50:37;97171.75;;;23.26;46.69
74975;BME280;64061;50.836;19.138;2023-01-09T06:53:41;97174.50;;;23.26;46.58
74975;BME280;64061;50.836;19.138;2023-01-09T06:56:46;97159.59;;;23.27;46.74
74975;BME280;64061;50.836;19.138;2023-01-09T06:59:50;97156.72;;;23.24;47.51
74975;BME280;64061;50.836;19.138;2023-01-09T07:02:53;97163.38;;;23.23;46.80
74975;BME280;64061;50.836;19.138;2023-01-09T07:05:57;97161.28;;;23.20;47.10
74975;BME280;64061;50.836;19.138;2023-01-09T07:09:01;97153.38;;;23.18;46.65
74975;BME280;64061;50.836;19.138;2023-01-09T07:12:07;97162.44;;;23.19;46.57
74975;BME280;64061;50.836;19.138;2023-01-09T07:15:11;97156.50;;;23.17;46.85
74975;BME280;64061;50.836;19.138;2023-01-09T07:18:14;97164.75;;;23.17;46.81
74975;BME280;64061;50.836;19.138;2023-01-09T07:21:18;97162.00;;;23.17;46.89
74975;BME280;64061;50.836;19.138;2023-01-09T07:24:22;97168.28;;;23.17;46.86
74975;BME280;64061;50.836;19.138;2023-01-09T07:27:27;97166.78;;;23.20;46.82
74975;BME280;64061;50.836;19.138;2023-01-09T07:30:31;97177.69;;;23.16;46.53
74975;BME280;64061;50.836;19.138;2023-01-09T07:33:35;97169.09;;;23.18;46.79
74975;BME280;64061;50.836;19.138;2023-01-09T07:36:39;97168.28;;;23.17;46.53
74975;BME280;64061;50.836;19.138;2023-01-09T07:39:42;97164.38;;;23.18;46.45
74975;BME280;64061;50.836;19.138;2023-01-09T07:42:47;97162.09;;;23.20;46.57
74975;BME280;64061;50.836;19.138;2023-01-09T07:45:51;97166.78;;;23.20;46.27
74975;BME280;64061;50.836;19.138;2023-01-09T07:48:55;97165.66;;;23.21;46.25
74975;BME280;64061;50.836;19.138;2023-01-09T07:51:58;97169.22;;;23.21;45.98
74975;BME280;64061;50.836;19.138;2023-01-09T07:55:03;97170.81;;;23.22;45.74
74975;BME280;64061;50.836;19.138;2023-01-09T07:58:08;97170.13;;;23.25;45.73
74975;BME280;64061;50.836;19.138;2023-01-09T08:01:12;97166.13;;;23.23;45.76
74975;BME280;64061;50.836;19.138;2023-01-09T08:04:16;97165.31;;;23.22;45.81
74975;BME280;64061;50.836;19.138;2023-01-09T08:07:20;97160.97;;;23.21;45.64
74975;BME280;64061;50.836;19.138;2023-01-09T08:10:23;97164.84;;;23.20;45.43
74975;BME280;64061;50.836;19.138;2023-01-09T08:13:28;97162.56;;;23.22;45.53
74975;BME280;64061;50.836;19.138;2023-01-09T08:16:32;97161.28;;;23.20;45.68
74975;BME280;64061;50.836;19.138;2023-01-09T08:19:36;97153.03;;;23.20;45.55
74975;BME280;64061;50.836;19.138;2023-01-09T08:22:41;97156.59;;;23.20;45.42
74975;BME280;64061;50.836;19.138;2023-01-09T08:25:45;97148.69;;;23.19;45.61
74975;BME280;64061;50.836;19.138;2023-01-09T08:28:50;97152.69;;;23.21;45.14
74975;BME280;64061;50.836;19.138;2023-01-09T08:31:54;97153.84;;;23.20;45.59
74975;BME280;64061;50.836;19.138;2023-01-09T08:34:58;97153.50;;;23.22;45.27
74975;BME280;64061;50.836;19.138;2023-01-09T08:38:01;97151.91;;;23.21;45.27
74975;BME280;64061;50.836;19.138;2023-01-09T08:41:05;97141.69;;;23.21;44.87
74975;BME280;64061;50.836;19.138;2023-01-09T08:44:24;97136.19;;;23.21;44.96
74975;BME280;64061;50.836;19.138;2023-01-09T08:47:45;97133.31;;;23.18;45.31
74975;BME280;64061;50.836;19.138;2023-01-09T08:50:49;97142.38;;;23.18;45.15
74975;BME280;64061;50.836;19.138;2023-01-09T08:53:55;97131.38;;;23.18;44.77
74975;BME280;64061;50.836;19.138;2023-01-09T08:56:58;97136.06;;;23.18;45.61
74975;BME280;64061;50.836;19.138;2023-01-09T09:00:04;97128.28;;;23.20;45.12
74975;BME280;64061;50.836;19.138;2023-01-09T09:03:08;97124.72;;;23.19;45.48
74975;BME280;64061;50.836;19.138;2023-01-09T09:06:13;97124.72;;;23.19;45.69
74975;BME280;64061;50.836;19.138;2023-01-09T09:09:16;97129.88;;;23.21;45.48
74975;BME280;64061;50.836;19.138;2023-01-09T09:12:21;97131.50;;;23.22;45.77
74975;BME280;64061;50.836;19.138;2023-01-09T09:15:27;97122.91;;;23.23;46.05
74975;BME280;64061;50.836;19.138;2023-01-09T09:18:31;97116.13;;;23.21;45.62
74975;BME280;64061;50.836;19.138;2023-01-09T09:21:34;97124.38;;;23.21;46.20
74975;BME280;64061;50.836;19.138;2023-01-09T09:24:38;97119.69;;;23.21;46.48
74975;BME280;64061;50.836;19.138;2023-01-09T09:27:42;97122.44;;;23.21;46.74
74975;BME280;64061;50.836;19.138;2023-01-09T09:30:47;97116.25;;;23.24;47.18
74975;BME280;64061;50.836;19.138;2023-01-09T09:33:50;97110.28;;;23.22;46.87
74975;BME280;64061;50.836;19.138;2023-01-09T09:36:54;97111.91;;;23.23;46.70
74975;BME280;64061;50.836;19.138;2023-01-09T09:39:58;97105.72;;;23.26;47.20
74975;BME280;64061;50.836;19.138;2023-01-09T09:43:33;97090.56;;;23.32;46.46
74975;BME280;64061;50.836;19.138;2023-01-09T09:47:47;97093.44;;;23.36;47.46
74975;BME280;64061;50.836;19.138;2023-01-09T09:51:25;97091.28;;;23.41;46.91
74975;BME280;64061;50.836;19.138;2023-01-09T09:54:46;97087.47;;;23.34;47.77
74975;BME280;64061;50.836;19.138;2023-01-09T09:57:52;97090.22;;;23.34;47.79
74975;BME280;64061;50.836;19.138;2023-01-09T10:00:59;97085.53;;;23.34;47.79
74975;BME280;64061;50.836;19.138;2023-01-09T10:04:09;97090.34;;;23.37;47.87
74975;BME280;64061;50.836;19.138;2023-01-09T10:07:21;97085.88;;;23.33;47.98
74975;BME280;64061;50.836;19.138;2023-01-09T10:10:32;97092.50;;;23.32;47.90
74975;BME280;64061;50.836;19.138;2023-01-09T10:13:40;97088.88;;;23.28;48.03
74975;BME280;64061;50.836;19.138;2023-01-09T10:17:25;97086.66;;;23.33;47.87
74975;BME280;64061;50.836;19.138;2023-01-09T10:20:54;97082.31;;;23.32;48.45
74975;BME280;64061;50.836;19.138;2023-01-09T10:24:20;97067.41;;;23.33;47.37
74975;BME280;64061;50.836;19.138;2023-01-09T10:27:57;97075.19;;;23.31;48.01
74975;BME280;64061;50.836;19.138;2023-01-09T10:31:20;97076.59;;;23.25;48.62
74975;BME280;64061;50.836;19.138;2023-01-09T10:34:40;97068.81;;;23.27;48.18
74975;BME280;64061;50.836;19.138;2023-01-09T10:37:56;97065.25;;;23.27;48.38
74975;BME280;64061;50.836;19.138;2023-01-09T10:41:07;97062.50;;;23.27;48.63
74975;BME280;64061;50.836;19.138;2023-01-09T10:44:20;97061.34;;;23.28;48.47
74975;BME280;64061;50.836;19.138;2023-01-09T10:47:31;97062.50;;;23.27;48.57
74975;BME280;64061;50.836;19.138;2023-01-09T10:50:39;97064.44;;;23.26;48.49
74975;BME280;64061;50.836;19.138;2023-01-09T10:53:49;97062.50;;;23.27;48.50
74975;BME280;64061;50.836;19.138;2023-01-09T10:56:59;97057.78;;;23.27;48.60
74975;BME280;64061;50.836;19.138;2023-01-09T11:00:17;97056.31;;;23.30;48.68
74975;BME280;64061;50.836;19.138;2023-01-09T11:03:26;97058.47;;;23.24;48.72
74975;BME280;64061;50.836;19.138;2023-01-09T11:06:36;97053.09;;;23.28;49.24
74975;BME280;64061;50.836;19.138;2023-01-09T11:09:58;97051.59;;;23.30;48.89
74975;BME280;64061;50.836;19.138;2023-01-09T11:13:18;97046.06;;;23.30;48.39
74975;BME280;64061;50.836;19.138;2023-01-09T11:16:23;97042.66;;;23.21;49.06
74975;BME280;64061;50.836;19.138;2023-01-09T11:19:28;97041.16;;;23.24;48.92
74975;BME280;64061;50.836;19.138;2023-01-09T11:22:41;97038.53;;;23.27;48.81
74975;BME280;64061;50.836;19.138;2023-01-09T11:25:52;97046.78;;;23.27;49.06
74975;BME280;64061;50.836;19.138;2023-01-09T11:29:04;97035.78;;;23.27;48.63
74975;BME280;64061;50.836;19.138;2023-01-09T11:32:20;97034.31;;;23.30;48.42
74975;BME280;64061;50.836;19.138;2023-01-09T11:35:28;97032.56;;;23.25;48.04
74975;BME280;64061;50.836;19.138;2023-01-09T11:38:48;97032.78;;;23.32;48.17
74975;BME280;64061;50.836;19.138;2023-01-09T11:41:57;97036.13;;;23.26;48.54
74975;BME280;64061;50.836;19.138;2023-01-09T11:45:03;97036.94;;;23.26;48.53
74975;BME280;64061;50.836;19.138;2023-01-09T11:48:16;97042.19;;;23.31;48.49
74975;BME280;64061;50.836;19.138;2023-01-09T11:51:22;97043.56;;;23.25;48.35
74975;BME280;64061;50.836;19.138;2023-01-09T11:54:29;97044.38;;;23.26;48.76
74975;BME280;64061;50.836;19.138;2023-01-09T11:57:38;97039.22;;;23.24;48.24
74975;BME280;64061;50.836;19.138;2023-01-09T12:00:47;97035.78;;;23.27;48.21
74975;BME280;64061;50.836;19.138;2023-01-09T12:04:14;97037.47;;;23.32;48.20
74975;BME280;64061;50.836;19.138;2023-01-09T12:07:43;97031.19;;;23.31;48.53
74975;BME280;64061;50.836;19.138;2023-01-09T12:14:39;97023.97;;;23.27;47.90
74975;BME280;64061;50.836;19.138;2023-01-09T12:18:11;97031.19;;;23.31;48.56
74975;BME280;64061;50.836;19.138;2023-01-09T12:21:32;97038.06;;;23.25;47.88
74975;BME280;64061;50.836;19.138;2023-01-09T12:25:05;97030.50;;;23.34;48.00
74975;BME280;64061;50.836;19.138;2023-01-09T12:28:40;97020.88;;;23.28;48.19
74975;BME280;64061;50.836;19.138;2023-01-09T12:32:22;97017.69;;;23.26;47.92
74975;BME280;64061;50.836;19.138;2023-01-09T12:35:40;97009.66;;;23.21;48.06
74975;BME280;64061;50.836;19.138;2023-01-09T12:38:53;97008.28;;;23.27;48.04
74975;BME280;64061;50.836;19.138;2023-01-09T12:42:12;97011.50;;;23.29;48.03
74975;BME280;64061;50.836;19.138;2023-01-09T12:45:39;97002.66;;;23.24;48.21
74975;BME280;64061;50.836;19.138;2023-01-09T12:49:27;97014.31;;;23.33;47.32
74975;BME280;64061;50.836;19.138;2023-01-09T12:52:38;97008.50;;;23.22;48.15
74975;BME280;64061;50.836;19.138;2023-01-09T12:55:51;97016.88;;;23.26;48.11
74975;BME280;64061;50.836;19.138;2023-01-09T12:59:09;97018.47;;;23.27;48.24
74975;BME280;64061;50.836;19.138;2023-01-09T13:02:34;97020.78;;;23.25;47.99
74975;BME280;64061;50.836;19.138;2023-01-09T13:05:48;97019.28;;;23.27;48.13
74975;BME280;64061;50.836;19.138;2023-01-09T13:09:04;97021.31;;;23.30;48.01
74975;BME280;64061;50.836;19.138;2023-01-09T13:12:16;97010.56;;;23.25;48.14
74975;BME280;64061;50.836;19.138;2023-01-09T13:15:28;97006.78;;;23.30;47.87
74975;BME280;64061;50.836;19.138;2023-01-09T13:18:41;96998.06;;;23.28;47.69
74975;BME280;64061;50.836;19.138;2023-01-09T13:21:53;96996.47;;;23.27;48.13
74975;BME280;64061;50.836;19.138;2023-01-09T13:28:50;97004.13;;;23.21;48.04
74975;BME280;64061;50.836;19.138;2023-01-09T13:32:19;97005.41;;;23.24;47.86
74975;BME280;64061;50.836;19.138;2023-01-09T13:35:47;97009.41;;;23.26;47.90
74975;BME280;64061;50.836;19.138;2023-01-09T13:38:55;97010.00;;;23.20;48.13
74975;BME280;64061;50.836;19.138;2023-01-09T13:42:02;97024.53;;;23.20;47.99
74975;BME280;64061;50.836;19.138;2023-01-09T13:45:27;97032.34;;;23.18;48.08
74975;BME280;64061;50.836;19.138;2023-01-09T13:48:40;97045.06;;;23.23;47.76
74975;BME280;64061;50.836;19.138;2023-01-09T13:51:59;97047.13;;;23.26;47.62
74975;BME280;64061;50.836;19.138;2023-01-09T13:55:30;97059.63;;;23.23;47.58
74975;BME280;64061;50.836;19.138;2023-01-09T13:58:58;97060.78;;;23.22;47.71
74975;BME280;64061;50.836;19.138;2023-01-09T14:06:16;97079.34;;;23.13;47.82
74975;BME280;64061;50.836;19.138;2023-01-09T14:09:22;97082.44;;;23.12;47.83
74975;BME280;64061;50.836;19.138;2023-01-09T14:12:28;97090.34;;;23.13;47.75
74975;BME280;64061;50.836;19.138;2023-01-09T14:15:37;97095.06;;;23.13;47.99
74975;BME280;64061;50.836;19.138;2023-01-09T14:18:48;97078.66;;;23.16;46.94
74975;BME280;64061;50.836;19.138;2023-01-09T14:21:55;97078.22;;;23.14;47.69
74975;BME280;64061;50.836;19.138;2023-01-09T14:25:03;97083.25;;;23.12;47.57
74975;BME280;64061;50.836;19.138;2023-01-09T14:28:20;97078.31;;;23.18;47.84
74975;BME280;64061;50.836;19.138;2023-01-09T14:31:27;97095.84;;;23.13;47.74
74975;BME280;64061;50.836;19.138;2023-01-09T14:34:35;97098.94;;;23.12;47.67
74975;BME280;64061;50.836;19.138;2023-01-09T14:37:41;97109.16;;;23.11;47.82
74975;BME280;64061;50.836;19.138;2023-01-09T14:40:53;97112.34;;;23.13;47.95
74975;BME280;64061;50.836;19.138;2023-01-09T14:44:05;97116.25;;;23.12;48.36
74975;BME280;64061;50.836;19.138;2023-01-09T14:47:32;97120.16;;;23.11;47.71
74975;BME280;64061;50.836;19.138;2023-01-09T14:50:43;97121.63;;;23.08;47.79
74975;BME280;64061;50.836;19.138;2023-01-09T14:53:52;97124.84;;;23.10;47.53
74975;BME280;64061;50.836;19.138;2023-01-09T14:56:58;97132.28;;;23.10;47.42
74975;BME280;64061;50.836;19.138;2023-01-09T15:00:15;97140.75;;;23.17;47.39
74975;BME280;64061;50.836;19.138;2023-01-09T15:03:21;97135.03;;;23.10;47.55
74975;BME280;64061;50.836;19.138;2023-01-09T15:06:29;97147.66;;;23.11;47.49
74975;BME280;64061;50.836;19.138;2023-01-09T15:09:42;97145.38;;;23.13;47.57
74975;BME280;64061;50.836;19.138;2023-01-09T15:12:51;97150.75;;;23.09;47.77
74975;BME280;64061;50.836;19.138;2023-01-09T15:15:59;97149.94;;;23.09;47.83
74975;BME280;64061;50.836;19.138;2023-01-09T15:19:07;97147.19;;;23.09;47.52
74975;BME280;64061;50.836;19.138;2023-01-09T15:22:27;97163.59;;;23.18;47.16
74975;BME280;64061;50.836;19.138;2023-01-09T15:25:33;97163.22;;;23.07;47.44
74975;BME280;64061;50.836;19.138;2023-01-09T15:28:42;97164.84;;;23.08;47.53
74975;BME280;64061;50.836;19.138;2023-01-09T15:31:52;97175.97;;;23.12;47.35
74975;BME280;64061;50.836;19.138;2023-01-09T15:34:57;97169.53;;;23.07;47.40
74975;BME280;64061;50.836;19.138;2023-01-09T15:38:01;97184.09;;;23.08;47.28
74975;BME280;64061;50.836;19.138;2023-01-09T15:41:07;97193.94;;;23.09;47.23
74975;BME280;64061;50.836;19.138;2023-01-09T15:44:16;97207.69;;;23.09;47.25
74975;BME280;64061;50.836;19.138;2023-01-09T15:47:24;97200.59;;;23.08;47.42
74975;BME280;64061;50.836;19.138;2023-01-09T15:50:29;97204.47;;;23.07;46.97
74975;BME280;64061;50.836;19.138;2023-01-09T15:53:32;97199.44;;;23.09;47.21
74975;BME280;64061;50.836;19.138;2023-01-09T15:56:37;97198.97;;;23.07;47.09
74975;BME280;64061;50.836;19.138;2023-01-09T15:59:40;97201.72;;;23.07;47.25
74975;BME280;64061;50.836;19.138;2023-01-09T16:02:46;97205.75;;;23.09;46.91
74975;BME280;64061;50.836;19.138;2023-01-09T16:06:09;97229.25;;;23.07;46.76
74975;BME280;64061;50.836;19.138;2023-01-09T16:09:22;97230.03;;;23.07;46.88
74975;BME280;64061;50.836;19.138;2023-01-09T16:12:29;97225.22;;;23.04;46.98
74975;BME280;64061;50.836;19.138;2023-01-09T16:15:33;97232.00;;;23.07;46.80
74975;BME280;64061;50.836;19.138;2023-01-09T16:18:49;97233.41;;;23.13;46.65
74975;BME280;64061;50.836;19.138;2023-01-09T16:21:56;97240.25;;;23.07;46.99
74975;BME280;64061;50.836;19.138;2023-01-09T16:25:02;97239.44;;;23.06;47.08
74975;BME280;64061;50.836;19.138;2023-01-09T16:28:26;97237.38;;;23.03;46.77
74975;BME280;64061;50.836;19.138;2023-01-09T16:31:31;97248.81;;;23.05;47.04
74975;BME280;64061;50.836;19.138;2023-01-09T16:34:40;97249.78;;;23.09;46.59
74975;BME280;64061;50.836;19.138;2023-01-09T16:37:45;97248.03;;;23.05;46.61
74975;BME280;64061;50.836;19.138;2023-01-09T16:41:00;97253.78;;;23.12;46.45
74975;BME280;64061;50.836;19.138;2023-01-09T16:44:22;97264.09;;;23.03;47.00
74975;BME280;64061;50.836;19.138;2023-01-09T16:47:26;97271.16;;;23.04;46.51
74975;BME280;64061;50.836;19.138;2023-01-09T16:50:31;97272.44;;;23.06;46.56